createdAt,value
2023-01-31T00:01:38.606Z,2.26
2023-01-31T00:04:12.739Z,2.26
2023-01-31T00:06:42.873Z,2.16
2023-01-31T00:09:14.879Z,2.16
2023-01-31T00:11:41.919Z,2.14
2023-01-31T00:14:10.766Z,2.23
2023-01-31T00:16:38.285Z,2.32
2023-01-31T00:19:05.551Z,2.36
2023-01-31T00:21:33.222Z,2.44
2023-01-31T00:24:00.861Z,2.48
2023-01-31T00:26:30.976Z,2.55
2023-01-31T00:29:00.003Z,2.49
2023-01-31T00:31:28.798Z,2.44
2023-01-31T00:33:56.909Z,2.40
2023-01-31T00:36:30.342Z,2.41
2023-01-31T00:39:02.888Z,2.38
2023-01-31T00:41:31.275Z,2.35
2023-01-31T00:43:58.979Z,2.45
2023-01-31T00:46:27.092Z,2.49
2023-01-31T00:48:55.949Z,2.42
2023-01-31T00:51:26.397Z,2.33
2023-01-31T00:53:53.706Z,2.25
2023-01-31T00:56:26.953Z,2.11
2023-01-31T00:58:54.357Z,2.12
2023-01-31T01:01:24.380Z,1.97
2023-01-31T01:03:51.404Z,1.85
2023-01-31T01:06:21.257Z,1.89
2023-01-31T01:08:48.339Z,1.96
2023-01-31T01:11:23.452Z,2.03
2023-01-31T01:13:50.912Z,2.09
2023-01-31T01:16:31.875Z,2.20
2023-01-31T01:18:59.093Z,2.25
2023-01-31T01:21:29.403Z,2.26
2023-01-31T01:23:59.479Z,2.28
2023-01-31T01:26:29.178Z,2.31
2023-01-31T01:28:58.807Z,2.34
2023-01-31T01:31:30.561Z,2.39
2023-01-31T01:34:04.104Z,2.47
2023-01-31T01:36:34.787Z,2.41
2023-01-31T01:39:02.734Z,2.42
2023-01-31T01:41:33.678Z,2.41
2023-01-31T01:44:02.643Z,2.27
2023-01-31T01:46:33.470Z,2.26
2023-01-31T01:49:19.686Z,2.22
2023-01-31T01:51:51.201Z,2.26
2023-01-31T01:54:23.658Z,2.22
2023-01-31T01:56:56.574Z,2.27
2023-01-31T01:59:29.238Z,2.28
2023-01-31T02:01:57.377Z,2.43
2023-01-31T02:04:31.011Z,2.55
2023-01-31T02:07:00.578Z,2.63
2023-01-31T02:09:46.820Z,2.73
2023-01-31T02:12:13.885Z,2.68
2023-01-31T02:14:42.600Z,2.70
2023-01-31T02:17:14.331Z,2.66
2023-01-31T02:19:53.273Z,2.62
2023-01-31T02:22:36.968Z,2.59
2023-01-31T02:25:31.723Z,2.60
2023-01-31T02:28:18.907Z,2.58
2023-01-31T02:31:10.956Z,2.54
2023-01-31T02:33:44.428Z,2.49
2023-01-31T02:36:30.271Z,2.53
2023-01-31T02:39:29.716Z,2.55
2023-01-31T02:42:16.140Z,2.56
2023-01-31T02:45:02.154Z,2.62
2023-01-31T02:47:48.845Z,2.64
2023-01-31T02:50:40.458Z,2.62
2023-01-31T02:53:15.658Z,2.56
2023-01-31T02:56:15.185Z,2.48
2023-01-31T02:58:47.555Z,2.33
2023-01-31T03:01:21.041Z,2.22
2023-01-31T03:03:48.391Z,2.18
2023-01-31T03:06:23.492Z,2.12
2023-01-31T03:09:02.817Z,2.10
2023-01-31T03:12:14.813Z,2.04
2023-01-31T03:15:05.983Z,1.93
2023-01-31T03:17:38.620Z,1.80
2023-01-31T03:20:26.466Z,1.78
2023-01-31T03:23:08.520Z,1.71
2023-01-31T03:25:38.453Z,1.71
2023-01-31T03:28:11.659Z,1.65
2023-01-31T03:31:17.557Z,1.60
2023-01-31T03:33:48.748Z,1.70
2023-01-31T03:36:29.820Z,1.80
2023-01-31T03:39:05.734Z,1.87
2023-01-31T03:41:43.374Z,1.99
2023-01-31T03:44:21.362Z,1.97
2023-01-31T03:46:52.942Z,1.99
2023-01-31T03:49:25.525Z,2.08
2023-01-31T03:51:58.697Z,2.04
2023-01-31T03:54:29.966Z,2.11
2023-01-31T03:57:01.354Z,2.14
2023-01-31T03:59:33.149Z,2.21
2023-01-31T04:02:03.955Z,2.13
2023-01-31T04:04:57.952Z,2.25
2023-01-31T04:07:25.303Z,2.23
2023-01-31T04:09:52.348Z,2.28
2023-01-31T04:12:19.217Z,2.21
2023-01-31T04:14:46.444Z,2.28
2023-01-31T04:17:13.662Z,2.36
2023-01-31T04:19:40.620Z,2.35
2023-01-31T04:22:07.600Z,2.37
2023-01-31T04:24:36.101Z,2.41
2023-01-31T04:27:03.098Z,2.52
2023-01-31T04:29:30.073Z,2.51
2023-01-31T04:31:56.997Z,2.50
2023-01-31T04:34:24.094Z,2.45
2023-01-31T04:36:51.021Z,2.46
2023-01-31T04:39:17.899Z,2.51
2023-01-31T04:41:44.746Z,2.47
2023-01-31T04:44:12.407Z,2.49
2023-01-31T04:46:39.542Z,2.51
2023-01-31T04:49:06.492Z,2.52
2023-01-31T04:51:33.489Z,2.54
2023-01-31T04:54:00.625Z,2.56
2023-01-31T04:56:27.651Z,2.61
2023-01-31T04:58:54.492Z,2.58
2023-01-31T05:01:21.495Z,2.62
2023-01-31T05:03:48.521Z,2.61
2023-01-31T05:06:15.490Z,2.60
2023-01-31T05:08:42.648Z,2.67
2023-01-31T05:11:10.031Z,2.67
2023-01-31T05:13:39.896Z,2.66
2023-01-31T05:16:11.497Z,2.66
2023-01-31T05:18:39.455Z,2.71
2023-01-31T05:21:08.399Z,2.73
2023-01-31T05:23:36.145Z,2.72
2023-01-31T05:26:03.916Z,2.75
2023-01-31T05:28:33.699Z,2.78
2023-01-31T05:31:08.309Z,2.77
2023-01-31T05:33:38.877Z,2.76
2023-01-31T05:36:06.136Z,2.72
2023-01-31T05:38:33.473Z,2.71
2023-01-31T05:41:00.736Z,2.68
2023-01-31T05:43:27.663Z,2.67
2023-01-31T05:45:54.639Z,2.70
2023-01-31T05:48:21.924Z,2.71
2023-01-31T05:50:50.648Z,2.74
2023-01-31T05:53:19.120Z,2.75
2023-01-31T05:55:45.927Z,2.76
2023-01-31T05:58:13.025Z,2.78
2023-01-31T06:00:39.872Z,2.82
2023-01-31T06:03:06.774Z,2.75
2023-01-31T06:05:34.338Z,2.79
2023-01-31T06:08:01.230Z,2.78
2023-01-31T06:10:28.376Z,2.81
2023-01-31T06:12:55.348Z,2.82
2023-01-31T06:15:22.710Z,2.88
2023-01-31T06:17:49.659Z,2.87
2023-01-31T06:20:17.379Z,2.88
2023-01-31T06:22:47.088Z,2.90
2023-01-31T06:25:14.158Z,2.92
2023-01-31T06:27:41.056Z,2.92
2023-01-31T06:30:13.833Z,2.92
2023-01-31T06:32:41.006Z,2.94
2023-01-31T06:35:08.256Z,2.94
2023-01-31T06:37:35.326Z,2.97
2023-01-31T06:40:02.262Z,2.97
2023-01-31T06:42:29.336Z,3.05
2023-01-31T06:44:56.432Z,3.02
2023-01-31T06:47:24.080Z,3.03
2023-01-31T06:49:54.511Z,3.06
2023-01-31T06:52:21.417Z,3.05
2023-01-31T06:54:48.391Z,3.06
2023-01-31T06:57:15.283Z,3.04
2023-01-31T06:59:42.231Z,3.08
2023-01-31T07:02:10.675Z,3.09
2023-01-31T07:04:37.849Z,3.12
2023-01-31T07:07:05.091Z,3.16
2023-01-31T07:09:32.309Z,3.15
2023-01-31T07:11:59.314Z,3.10
2023-01-31T07:14:26.409Z,3.16
2023-01-31T07:16:56.466Z,3.15
2023-01-31T07:19:23.618Z,3.21
2023-01-31T07:21:51.273Z,3.22
2023-01-31T07:24:18.258Z,3.22
2023-01-31T07:26:45.353Z,3.17
2023-01-31T07:29:12.514Z,3.24
2023-01-31T07:31:39.992Z,3.28
2023-01-31T07:34:06.903Z,3.27
2023-01-31T07:36:33.866Z,3.32
2023-01-31T07:39:02.114Z,3.33
2023-01-31T07:41:29.510Z,3.32
2023-01-31T07:43:58.375Z,3.37
2023-01-31T07:46:25.385Z,3.38
2023-01-31T07:48:53.462Z,3.36
2023-01-31T07:51:20.470Z,3.48
2023-01-31T07:53:47.796Z,3.47
2023-01-31T07:56:17.278Z,3.53
2023-01-31T07:58:46.125Z,3.51
2023-01-31T08:01:42.424Z,3.58
2023-01-31T08:04:21.177Z,3.60
2023-01-31T08:06:51.370Z,3.52
2023-01-31T08:09:18.381Z,3.58
2023-01-31T08:11:45.281Z,3.58
2023-01-31T08:14:12.121Z,3.63
2023-01-31T08:16:40.072Z,3.61
2023-01-31T08:19:06.936Z,3.70
2023-01-31T08:21:33.956Z,3.68
2023-01-31T08:24:07.001Z,3.73
2023-01-31T08:26:34.416Z,3.78
2023-01-31T08:29:01.974Z,3.74
2023-01-31T08:31:29.650Z,3.79
2023-01-31T08:34:00.237Z,3.78
2023-01-31T08:36:31.992Z,3.76
2023-01-31T08:38:59.775Z,3.76
2023-01-31T08:41:28.078Z,3.76
2023-01-31T08:43:57.876Z,3.72
2023-01-31T08:46:32.491Z,3.81
2023-01-31T08:49:04.490Z,3.79
2023-01-31T08:51:32.503Z,3.83
2023-01-31T08:53:59.684Z,3.87
2023-01-31T08:56:28.196Z,3.84
2023-01-31T08:58:55.463Z,3.85
2023-01-31T09:01:23.348Z,3.81
2023-01-31T09:03:58.325Z,3.84
2023-01-31T09:06:27.833Z,3.81
2023-01-31T09:08:58.817Z,3.85
2023-01-31T09:11:28.825Z,3.86
2023-01-31T09:13:59.537Z,3.89
2023-01-31T09:16:26.509Z,3.98
2023-01-31T09:18:54.306Z,3.99
2023-01-31T09:21:22.229Z,4.02
2023-01-31T09:23:54.287Z,3.98
2023-01-31T09:26:21.257Z,4.01
2023-01-31T09:28:49.515Z,4.03
2023-01-31T09:31:18.938Z,4.07
2023-01-31T09:33:46.197Z,4.11
2023-01-31T09:36:22.748Z,4.08
2023-01-31T09:38:55.913Z,4.04
2023-01-31T09:41:34.227Z,4.05
2023-01-31T09:44:38.619Z,4.05
2023-01-31T09:47:28.739Z,4.11
2023-01-31T09:50:01.794Z,4.13
2023-01-31T09:52:31.985Z,4.21
2023-01-31T09:54:59.997Z,4.26
2023-01-31T09:57:51.877Z,4.20
2023-01-31T10:00:26.437Z,4.24
2023-01-31T10:03:02.169Z,4.32
2023-01-31T10:05:48.585Z,4.31
2023-01-31T10:08:34.364Z,4.32
2023-01-31T10:11:06.855Z,4.32
2023-01-31T10:13:37.056Z,4.35
2023-01-31T10:16:25.455Z,4.37
2023-01-31T10:19:00.145Z,4.44
2023-01-31T10:21:36.988Z,4.43
2023-01-31T10:24:32.643Z,4.47
2023-01-31T10:27:16.619Z,4.40
2023-01-31T10:29:47.875Z,4.45
2023-01-31T10:32:44.586Z,4.40
2023-01-31T10:35:36.018Z,4.39
2023-01-31T10:38:17.265Z,4.42
2023-01-31T10:40:49.126Z,4.43
2023-01-31T10:43:30.145Z,4.48
2023-01-31T10:46:01.614Z,4.48
2023-01-31T10:48:29.842Z,4.45
2023-01-31T10:51:34.163Z,4.50
2023-01-31T10:54:19.788Z,4.43
2023-01-31T10:56:48.639Z,4.53
2023-01-31T10:59:18.131Z,4.57
2023-01-31T11:01:45.263Z,4.58
2023-01-31T11:04:51.713Z,4.64
2023-01-31T11:07:20.113Z,4.70
2023-01-31T11:09:54.726Z,4.77
2023-01-31T11:12:39.160Z,4.77
2023-01-31T11:15:16.142Z,4.76
2023-01-31T11:17:45.411Z,4.80
2023-01-31T11:20:44.724Z,4.83
2023-01-31T11:23:17.346Z,4.83
2023-01-31T11:25:51.787Z,4.93
2023-01-31T11:28:39.864Z,4.90
2023-01-31T11:31:16.100Z,4.92
2023-01-31T11:33:47.974Z,4.96
2023-01-31T11:36:26.849Z,4.97
2023-01-31T11:38:55.299Z,4.98
2023-01-31T11:41:37.840Z,5.00
2023-01-31T11:44:25.102Z,4.99
2023-01-31T11:46:55.848Z,5.01
2023-01-31T11:49:43.124Z,5.04
2023-01-31T11:52:22.679Z,5.03
2023-01-31T11:54:55.349Z,5.03
2023-01-31T11:57:29.431Z,5.06
2023-01-31T11:59:59.969Z,5.05
2023-01-31T12:02:33.761Z,5.10
2023-01-31T12:05:02.633Z,5.17
2023-01-31T12:07:57.569Z,5.14
2023-01-31T12:10:41.617Z,5.20
2023-01-31T12:13:29.171Z,5.20
2023-01-31T12:16:02.352Z,5.25
2023-01-31T12:18:29.290Z,5.22
2023-01-31T12:21:07.922Z,5.18
2023-01-31T12:23:44.646Z,5.19
2023-01-31T12:26:22.595Z,5.26
2023-01-31T12:29:11.930Z,5.22
2023-01-31T12:32:10.027Z,5.29
2023-01-31T12:35:14.985Z,-148.03
2023-01-31T12:38:06.944Z,-148.03
2023-01-31T12:40:56.831Z,-148.03
2023-01-31T12:43:23.574Z,5.36
2023-01-31T12:46:10.070Z,5.46
2023-01-31T12:48:55.975Z,5.52
2023-01-31T12:51:36.078Z,5.56
2023-01-31T12:54:21.528Z,5.64
2023-01-31T12:57:07.631Z,5.67
2023-01-31T12:59:52.950Z,5.72
2023-01-31T13:02:32.123Z,5.72
2023-01-31T13:05:22.189Z,5.72
2023-01-31T13:07:56.189Z,5.76
2023-01-31T13:10:35.408Z,5.79
2023-01-31T13:13:05.109Z,5.94
2023-01-31T13:15:47.957Z,6.04
2023-01-31T13:18:15.869Z,6.08
2023-01-31T13:20:48.974Z,6.22
2023-01-31T13:23:34.361Z,6.33
2023-01-31T13:26:13.210Z,6.28
2023-01-31T13:28:57.406Z,6.21
2023-01-31T13:31:45.192Z,6.15
2023-01-31T13:34:31.933Z,6.20
2023-01-31T13:37:03.175Z,6.28
2023-01-31T13:39:43.430Z,6.33
2023-01-31T13:42:15.785Z,6.38
2023-01-31T13:44:43.812Z,6.43
2023-01-31T13:47:21.305Z,6.48
2023-01-31T13:50:30.362Z,6.56
2023-01-31T13:53:02.361Z,6.55
2023-01-31T13:55:40.378Z,6.67
2023-01-31T13:58:22.936Z,6.60
2023-01-31T14:01:04.857Z,6.54
2023-01-31T14:03:31.804Z,6.60
2023-01-31T14:06:00.986Z,6.62
2023-01-31T14:08:58.470Z,6.51
2023-01-31T14:11:26.026Z,6.52
2023-01-31T14:14:38.937Z,6.48
2023-01-31T14:17:09.335Z,6.42
2023-01-31T14:19:47.936Z,6.33
2023-01-31T14:22:22.301Z,6.32
2023-01-31T14:24:56.943Z,6.31
2023-01-31T14:27:28.899Z,6.29
2023-01-31T14:30:09.381Z,6.33
2023-01-31T14:32:45.075Z,6.31
2023-01-31T14:35:14.691Z,6.28
2023-01-31T14:37:58.994Z,6.30
2023-01-31T14:40:28.470Z,6.27
2023-01-31T14:43:17.406Z,6.24
2023-01-31T14:45:56.129Z,6.25
2023-01-31T14:49:02.738Z,6.24
2023-01-31T14:51:53.261Z,6.23
2023-01-31T14:54:35.129Z,6.24
2023-01-31T14:57:16.106Z,6.28
2023-01-31T14:59:46.563Z,6.31
2023-01-31T15:02:32.296Z,6.38
2023-01-31T15:05:13.346Z,6.37
2023-01-31T15:07:58.820Z,6.35
2023-01-31T15:10:58.413Z,6.33
2023-01-31T15:13:50.456Z,6.29
2023-01-31T15:16:30.000Z,6.32
2023-01-31T15:20:01.772Z,6.31
2023-01-31T15:22:31.034Z,6.34
2023-01-31T15:25:12.472Z,6.34
2023-01-31T15:27:43.355Z,6.35
2023-01-31T15:30:22.443Z,6.33
2023-01-31T15:33:02.676Z,6.29
2023-01-31T15:35:34.522Z,6.32
2023-01-31T15:38:06.588Z,6.34
2023-01-31T15:40:33.792Z,6.33
2023-01-31T15:43:23.291Z,6.34
2023-01-31T15:45:54.046Z,6.32
2023-01-31T15:48:22.480Z,6.25
2023-01-31T15:50:53.025Z,6.25
2023-01-31T15:53:23.819Z,6.19
2023-01-31T15:55:52.695Z,6.25
2023-01-31T15:58:22.705Z,6.25
2023-01-31T16:00:54.206Z,6.24
2023-01-31T16:03:30.007Z,5.18
2023-01-31T16:05:59.644Z,4.48
2023-01-31T16:08:35.641Z,4.28
2023-01-31T16:11:08.511Z,4.15
2023-01-31T16:13:41.320Z,4.04
2023-01-31T16:16:14.507Z,4.01
2023-01-31T16:18:50.336Z,3.84
2023-01-31T16:21:30.966Z,3.80
2023-01-31T16:24:15.223Z,3.75
2023-01-31T16:27:09.695Z,3.73
2023-01-31T16:29:43.837Z,3.69
2023-01-31T16:32:22.700Z,3.66
2023-01-31T16:35:03.570Z,3.69
2023-01-31T16:37:36.722Z,3.66
2023-01-31T16:40:19.957Z,3.65
2023-01-31T16:42:47.679Z,3.67
2023-01-31T16:45:34.687Z,3.76
2023-01-31T16:48:22.373Z,3.77
2023-01-31T16:50:54.373Z,3.89
2023-01-31T16:53:28.196Z,4.03
2023-01-31T16:56:13.634Z,4.16
2023-01-31T17:00:28.070Z,4.36
2023-01-31T17:02:57.479Z,4.34
2023-01-31T17:05:31.764Z,4.32
2023-01-31T17:07:59.640Z,4.30
2023-01-31T17:10:29.452Z,4.37
2023-01-31T17:13:11.328Z,4.35
2023-01-31T17:15:38.104Z,4.35
2023-01-31T17:18:09.876Z,4.34
2023-01-31T17:20:40.378Z,4.36
2023-01-31T17:23:07.248Z,4.41
2023-01-31T17:25:39.974Z,4.41
2023-01-31T17:28:09.759Z,4.39
2023-01-31T17:30:45.381Z,4.40
2023-01-31T17:33:13.795Z,4.43
2023-01-31T17:35:43.957Z,4.39
2023-01-31T17:38:11.149Z,4.36
2023-01-31T17:40:40.794Z,4.36
2023-01-31T17:43:08.249Z,4.34
2023-01-31T17:45:35.160Z,4.30
2023-01-31T17:48:02.004Z,4.30
2023-01-31T17:50:29.600Z,4.27
2023-01-31T17:52:57.385Z,4.20
2023-01-31T17:55:25.804Z,4.21
2023-01-31T17:57:55.961Z,4.20
2023-01-31T18:00:23.014Z,4.16
2023-01-31T18:02:51.938Z,4.11
2023-01-31T18:05:33.553Z,4.19
2023-01-31T18:08:05.605Z,4.14
2023-01-31T18:10:32.422Z,4.19
2023-01-31T18:12:59.264Z,4.25
2023-01-31T18:15:26.081Z,4.37
2023-01-31T18:17:56.115Z,4.43
2023-01-31T18:20:23.406Z,4.51
2023-01-31T18:22:50.468Z,4.58
2023-01-31T18:25:20.847Z,4.58
2023-01-31T18:27:47.858Z,4.56
2023-01-31T18:30:14.823Z,4.56
2023-01-31T18:32:41.691Z,4.58
2023-01-31T18:35:08.741Z,4.59
2023-01-31T18:37:36.226Z,4.62
2023-01-31T18:40:03.222Z,4.63
2023-01-31T18:42:30.216Z,4.67
2023-01-31T18:44:57.276Z,4.70
2023-01-31T18:47:24.042Z,4.70
2023-01-31T18:49:50.815Z,4.76
2023-01-31T18:52:17.728Z,4.77
2023-01-31T18:54:45.646Z,4.76
2023-01-31T18:57:12.517Z,4.64
2023-01-31T18:59:39.304Z,4.47
2023-01-31T19:02:06.390Z,4.41
2023-01-31T19:04:36.590Z,4.27
2023-01-31T19:07:04.713Z,4.24
2023-01-31T19:09:31.738Z,4.24
2023-01-31T19:11:58.860Z,4.25
2023-01-31T19:14:25.664Z,4.18
2023-01-31T19:16:54.812Z,4.21
2023-01-31T19:19:22.061Z,4.18
2023-01-31T19:21:48.927Z,4.19
2023-01-31T19:24:17.108Z,4.30
2023-01-31T19:26:44.455Z,4.32
2023-01-31T19:29:14.943Z,4.35
2023-01-31T19:31:42.117Z,4.36
2023-01-31T19:34:09.354Z,4.37
2023-01-31T19:36:38.995Z,4.34
2023-01-31T19:39:08.467Z,4.34
2023-01-31T19:41:39.273Z,4.37
2023-01-31T19:44:06.213Z,4.41
2023-01-31T19:46:38.144Z,4.42
2023-01-31T19:49:06.479Z,4.44
2023-01-31T19:51:33.917Z,4.36
2023-01-31T19:54:02.761Z,4.27
2023-01-31T19:56:30.480Z,4.21
2023-01-31T19:58:57.400Z,4.21
2023-01-31T20:01:25.135Z,4.17
2023-01-31T20:03:54.324Z,4.21
2023-01-31T20:06:25.937Z,4.21
2023-01-31T20:08:54.866Z,4.26
2023-01-31T20:11:22.386Z,4.31
2023-01-31T20:13:51.406Z,4.36
2023-01-31T20:16:19.555Z,4.38
2023-01-31T20:18:49.591Z,4.40
2023-01-31T20:21:18.807Z,4.47
2023-01-31T20:23:46.354Z,4.42
2023-01-31T20:26:14.268Z,4.40
2023-01-31T20:28:42.481Z,4.36
2023-01-31T20:31:12.320Z,4.33
2023-01-31T20:33:39.192Z,4.37
2023-01-31T20:36:06.644Z,4.42
2023-01-31T20:38:33.520Z,4.41
2023-01-31T20:41:00.577Z,4.35
2023-01-31T20:43:27.821Z,4.20
2023-01-31T20:46:06.358Z,4.05
2023-01-31T20:48:38.569Z,3.97
2023-01-31T20:51:11.802Z,4.03
2023-01-31T20:53:39.295Z,4.01
2023-01-31T20:56:12.375Z,3.98
2023-01-31T20:58:41.897Z,4.02
2023-01-31T21:01:10.856Z,3.97
2023-01-31T21:03:37.964Z,3.94
2023-01-31T21:06:05.625Z,3.94
2023-01-31T21:08:33.383Z,3.95
2023-01-31T21:11:03.755Z,3.97
2023-01-31T21:13:31.785Z,4.00
2023-01-31T21:16:02.079Z,4.04
2023-01-31T21:18:31.016Z,4.10
2023-01-31T21:20:58.261Z,4.21
2023-01-31T21:23:25.975Z,4.20
2023-01-31T21:25:52.836Z,4.27
2023-01-31T21:28:21.071Z,4.30
2023-01-31T21:31:03.866Z,4.35
2023-01-31T21:33:31.276Z,4.34
2023-01-31T21:36:00.647Z,4.35
2023-01-31T21:38:30.472Z,4.36
2023-01-31T21:41:19.446Z,4.33
2023-01-31T21:43:46.561Z,4.31
2023-01-31T21:46:15.198Z,4.31
2023-01-31T21:48:42.622Z,4.19
2023-01-31T21:51:14.689Z,4.18
2023-01-31T21:53:42.136Z,4.09
2023-01-31T21:56:20.651Z,4.06
2023-01-31T21:58:48.626Z,4.06
2023-01-31T22:01:20.063Z,4.01
2023-01-31T22:03:49.627Z,3.92
2023-01-31T22:06:21.735Z,3.98
2023-01-31T22:08:57.382Z,4.05
2023-01-31T22:11:26.183Z,4.11
2023-01-31T22:13:56.831Z,4.22
2023-01-31T22:16:24.224Z,4.25
2023-01-31T22:18:57.258Z,4.27
2023-01-31T22:21:26.837Z,4.33
2023-01-31T22:23:56.412Z,4.36
2023-01-31T22:26:33.451Z,4.33
2023-01-31T22:29:02.491Z,4.36
2023-01-31T22:31:29.977Z,4.40
2023-01-31T22:34:03.947Z,4.41
2023-01-31T22:36:31.132Z,4.47
2023-01-31T22:38:58.260Z,4.42
2023-01-31T22:41:25.378Z,4.43
2023-01-31T22:43:53.361Z,4.34
2023-01-31T22:46:26.534Z,4.28
2023-01-31T22:48:56.797Z,4.23
2023-01-31T22:51:26.364Z,4.19
2023-01-31T22:53:55.416Z,4.15
2023-01-31T22:56:24.919Z,4.16
2023-01-31T22:58:59.878Z,4.17
2023-01-31T23:01:30.280Z,4.11
2023-01-31T23:03:58.997Z,4.03
2023-01-31T23:06:28.139Z,3.95
2023-01-31T23:08:55.567Z,3.93
2023-01-31T23:11:23.787Z,3.92
2023-01-31T23:13:51.407Z,3.84
2023-01-31T23:16:43.768Z,3.84
2023-01-31T23:19:11.589Z,3.84
2023-01-31T23:21:42.997Z,3.82
2023-01-31T23:24:11.463Z,3.78
2023-01-31T23:26:38.544Z,3.83
2023-01-31T23:29:05.567Z,3.84
2023-01-31T23:31:32.830Z,3.92
2023-01-31T23:34:00.877Z,3.98
2023-01-31T23:36:28.404Z,3.97
2023-01-31T23:38:55.341Z,3.88
2023-01-31T23:41:22.178Z,3.94
2023-01-31T23:43:49.561Z,3.97
2023-01-31T23:46:16.580Z,3.98
2023-01-31T23:48:44.908Z,4.02
2023-01-31T23:51:12.104Z,4.10
2023-01-31T23:53:39.036Z,4.18
2023-01-31T23:56:06.868Z,4.17
2023-01-31T23:58:34.074Z,4.16
